createdAt,value
2022-11-01T18:07:26.114Z,14.70
2022-11-01T18:09:56.752Z,14.10
2022-11-01T18:12:36.724Z,15.20
2022-11-01T18:15:17.118Z,16.20
2022-11-01T18:17:55.956Z,17.10
2022-11-01T18:20:39.211Z,19.80
2022-11-01T18:23:22.387Z,19.20
2022-11-01T18:25:51.843Z,20.00
2022-11-01T18:28:26.192Z,21.10
2022-11-01T18:30:57.972Z,21.30
2022-11-01T18:33:35.143Z,21.40
2022-11-01T18:36:16.135Z,20.70
2022-11-01T18:38:57.279Z,20.60
2022-11-01T18:41:28.830Z,23.20
2022-11-01T18:43:58.169Z,26.20
2022-11-01T18:46:51.024Z,18.50
2022-11-01T18:49:29.843Z,18.90
2022-11-01T18:51:58.620Z,21.30
2022-11-01T18:54:29.946Z,20.10
2022-11-01T18:57:08.979Z,20.70
2022-11-01T18:59:48.968Z,20.80
2022-11-01T19:02:21.410Z,23.00
2022-11-01T19:04:52.635Z,22.50
2022-11-01T19:07:23.196Z,25.20
2022-11-01T19:09:55.737Z,22.80
2022-11-01T19:12:29.497Z,22.60
2022-11-01T19:15:04.491Z,22.00
2022-11-01T19:17:38.726Z,20.60
2022-11-01T19:20:22.663Z,20.40
2022-11-01T19:22:56.173Z,21.40
2022-11-01T19:25:28.245Z,22.00
2022-11-01T19:28:02.004Z,22.90
2022-11-01T19:30:32.892Z,23.00
2022-11-01T19:33:15.880Z,20.90
2022-11-01T19:35:55.926Z,20.60
2022-11-01T19:38:30.348Z,22.70
2022-11-01T19:41:02.952Z,21.60
2022-11-01T19:43:33.185Z,21.60
2022-11-01T19:46:06.750Z,20.60
2022-11-01T19:48:36.049Z,22.00
2022-11-01T19:51:17.531Z,22.40
2022-11-01T19:53:54.628Z,25.50
2022-11-01T19:56:26.114Z,25.50
2022-11-01T19:58:57.556Z,26.20
2022-11-01T20:01:40.649Z,26.90
2022-11-01T20:04:27.140Z,23.10
2022-11-01T20:07:00.720Z,24.20
2022-11-01T20:09:33.622Z,25.30
2022-11-01T20:12:02.897Z,26.30
2022-11-01T20:14:32.978Z,26.90
2022-11-01T20:17:02.221Z,31.20
2022-11-01T20:19:31.315Z,26.80
2022-11-01T20:22:00.459Z,28.60
2022-11-01T20:24:30.423Z,29.10
2022-11-01T20:27:00.360Z,25.80
2022-11-01T20:29:30.228Z,24.20
2022-11-01T20:31:59.779Z,24.90
2022-11-01T20:34:31.044Z,23.90
2022-11-01T20:37:28.073Z,25.20
2022-11-01T20:39:50.087Z,26.20
2022-11-01T20:42:23.869Z,24.40
2022-11-01T20:44:53.133Z,24.60
2022-11-01T20:47:24.578Z,25.30
2022-11-01T20:49:53.276Z,25.70
2022-11-01T20:55:13.006Z,28.10
2022-11-01T20:57:42.265Z,26.70
2022-11-01T21:00:14.130Z,28.00
2022-11-01T21:02:49.097Z,25.50
2022-11-01T21:05:24.458Z,25.70
2022-11-01T21:07:57.913Z,24.80
2022-11-01T21:10:30.892Z,25.80
2022-11-01T21:13:02.200Z,26.70
2022-11-01T21:15:35.375Z,25.90
2022-11-01T21:18:36.596Z,26.00
2022-11-01T21:21:33.789Z,25.70
2022-11-01T21:24:30.854Z,28.40
2022-11-01T21:27:24.203Z,27.50
2022-11-01T21:30:00.097Z,30.10
2022-11-01T21:32:41.076Z,27.60
2022-11-01T21:35:38.320Z,27.50
2022-11-01T21:38:28.528Z,23.60
2022-11-01T21:41:01.054Z,22.80
2022-11-01T21:43:34.640Z,20.00
2022-11-01T21:46:03.517Z,19.50
2022-11-01T21:48:33.960Z,17.40
2022-11-01T21:51:03.127Z,16.40
2022-11-01T21:53:33.552Z,18.20
2022-11-01T21:56:03.495Z,18.70
2022-11-01T21:58:32.133Z,16.30
2022-11-01T22:01:01.180Z,19.30
2022-11-01T22:03:29.577Z,18.20
2022-11-01T22:05:57.982Z,17.90
2022-11-01T22:08:26.587Z,19.20
2022-11-01T22:10:55.042Z,20.10
2022-11-01T22:13:24.448Z,19.70
2022-11-01T22:15:55.799Z,18.30
2022-11-01T22:18:27.378Z,19.80
2022-11-01T22:21:04.060Z,17.50
2022-11-01T22:23:32.519Z,20.30
2022-11-01T22:26:07.063Z,20.30
2022-11-01T22:28:35.882Z,20.90
2022-11-01T22:31:05.007Z,21.50
2022-11-01T22:33:34.812Z,20.20
2022-11-01T22:36:04.507Z,20.10
2022-11-01T22:38:37.440Z,22.10
2022-11-01T22:41:12.375Z,22.20
2022-11-01T22:43:42.820Z,20.90
2022-11-01T22:46:27.241Z,17.20
2022-11-01T22:49:12.030Z,17.70
2022-11-01T22:51:43.981Z,19.10
2022-11-01T22:54:32.351Z,20.40
2022-11-01T22:57:21.425Z,16.30
2022-11-01T22:59:55.740Z,20.40
2022-11-01T23:02:28.396Z,19.10
2022-11-01T23:05:20.337Z,21.60
2022-11-01T23:07:50.452Z,14.20
2022-11-01T23:10:26.646Z,17.60
2022-11-01T23:13:21.030Z,16.00
2022-11-01T23:15:51.827Z,15.30
2022-11-01T23:18:23.309Z,16.10
2022-11-01T23:20:56.629Z,17.30
2022-11-01T23:23:25.332Z,16.90
2022-11-01T23:25:57.060Z,18.40
2022-11-01T23:28:26.695Z,16.90
2022-11-01T23:30:56.974Z,18.20
2022-11-01T23:33:39.487Z,17.30
2022-11-01T23:36:16.672Z,19.30
2022-11-01T23:38:49.308Z,19.60
2022-11-01T23:41:22.661Z,17.70
2022-11-01T23:43:54.891Z,18.60
2022-11-01T23:46:23.919Z,19.90
2022-11-01T23:48:57.965Z,18.60
2022-11-01T23:51:28.394Z,19.60
2022-11-01T23:53:57.654Z,19.50
2022-11-01T23:56:29.819Z,16.10
2022-11-01T23:59:03.531Z,16.60
